sensor_id;sensor_type;location;lat;lon;timestamp;P1;durP1;ratioP1;P2;durP2;ratioP2
5475;SDS011;2760;50.000;9.194;2022-11-04T00:01:48;11.90;;;7.70;;
5475;SDS011;2760;50.000;9.194;2022-11-04T00:04:16;10.60;;;7.47;;
5475;SDS011;2760;50.000;9.194;2022-11-04T00:06:45;8.67;;;6.57;;
5475;SDS011;2760;50.000;9.194;2022-11-04T00:09:14;8.07;;;6.53;;
5475;SDS011;2760;50.000;9.194;2022-11-04T00:11:43;7.37;;;6.10;;
5475;SDS011;2760;50.000;9.194;2022-11-04T00:14:27;8.70;;;6.40;;
5475;SDS011;2760;50.000;9.194;2022-11-04T00:16:55;5.43;;;4.90;;
5475;SDS011;2760;50.000;9.194;2022-11-04T00:19:40;7.50;;;5.37;;
5475;SDS011;2760;50.000;9.194;2022-11-04T00:22:26;7.57;;;5.03;;
5475;SDS011;2760;50.000;9.194;2022-11-04T00:25:11;7.07;;;5.40;;
5475;SDS011;2760;50.000;9.194;2022-11-04T00:28:02;7.00;;;4.73;;
5475;SDS011;2760;50.000;9.194;2022-11-04T00:30:51;6.20;;;4.73;;
5475;SDS011;2760;50.000;9.194;2022-11-04T00:33:19;5.60;;;4.67;;
5475;SDS011;2760;50.000;9.194;2022-11-04T00:35:51;5.87;;;4.50;;
5475;SDS011;2760;50.000;9.194;2022-11-04T00:38:20;5.70;;;4.33;;
5475;SDS011;2760;50.000;9.194;2022-11-04T00:40:48;4.90;;;4.20;;
5475;SDS011;2760;50.000;9.194;2022-11-04T00:43:15;5.00;;;4.23;;
5475;SDS011;2760;50.000;9.194;2022-11-04T00:45:43;6.50;;;4.53;;
5475;SDS011;2760;50.000;9.194;2022-11-04T00:48:10;6.10;;;3.60;;
5475;SDS011;2760;50.000;9.194;2022-11-04T00:50:37;5.83;;;4.23;;
5475;SDS011;2760;50.000;9.194;2022-11-04T00:53:04;6.10;;;4.43;;
5475;SDS011;2760;50.000;9.194;2022-11-04T00:55:32;5.43;;;4.03;;
5475;SDS011;2760;50.000;9.194;2022-11-04T00:57:59;4.60;;;3.87;;
5475;SDS011;2760;50.000;9.194;2022-11-04T01:00:27;8.17;;;4.60;;
5475;SDS011;2760;50.000;9.194;2022-11-04T01:02:54;5.17;;;4.67;;
5475;SDS011;2760;50.000;9.194;2022-11-04T01:05:24;8.10;;;4.23;;
5475;SDS011;2760;50.000;9.194;2022-11-04T01:07:51;5.63;;;4.23;;
5475;SDS011;2760;50.000;9.194;2022-11-04T01:10:18;4.60;;;4.10;;
5475;SDS011;2760;50.000;9.194;2022-11-04T01:12:46;6.03;;;3.73;;
5475;SDS011;2760;50.000;9.194;2022-11-04T01:15:13;8.30;;;3.73;;
5475;SDS011;2760;50.000;9.194;2022-11-04T01:17:40;4.40;;;3.37;;
5475;SDS011;2760;50.000;9.194;2022-11-04T01:20:08;5.87;;;3.57;;
5475;SDS011;2760;50.000;9.194;2022-11-04T01:22:37;4.70;;;4.10;;
5475;SDS011;2760;50.000;9.194;2022-11-04T01:25:04;4.83;;;3.90;;
5475;SDS011;2760;50.000;9.194;2022-11-04T01:27:32;5.47;;;3.63;;
5475;SDS011;2760;50.000;9.194;2022-11-04T01:30:01;3.53;;;3.23;;
5475;SDS011;2760;50.000;9.194;2022-11-04T01:32:28;3.90;;;3.30;;
5475;SDS011;2760;50.000;9.194;2022-11-04T01:34:55;3.40;;;3.10;;
5475;SDS011;2760;50.000;9.194;2022-11-04T01:37:22;2.97;;;2.50;;
5475;SDS011;2760;50.000;9.194;2022-11-04T01:39:49;3.10;;;2.90;;
5475;SDS011;2760;50.000;9.194;2022-11-04T01:42:16;4.27;;;2.90;;
5475;SDS011;2760;50.000;9.194;2022-11-04T01:44:50;5.47;;;2.83;;
5475;SDS011;2760;50.000;9.194;2022-11-04T01:47:20;2.77;;;2.53;;
5475;SDS011;2760;50.000;9.194;2022-11-04T01:49:51;3.07;;;2.77;;
5475;SDS011;2760;50.000;9.194;2022-11-04T01:52:23;3.33;;;2.40;;
5475;SDS011;2760;50.000;9.194;2022-11-04T01:54:56;2.67;;;2.40;;
5475;SDS011;2760;50.000;9.194;2022-11-04T01:57:29;2.90;;;2.70;;
5475;SDS011;2760;50.000;9.194;2022-11-04T02:00:00;4.20;;;2.40;;
5475;SDS011;2760;50.000;9.194;2022-11-04T02:02:39;3.23;;;2.40;;
5475;SDS011;2760;50.000;9.194;2022-11-04T02:05:14;2.30;;;2.10;;
5475;SDS011;2760;50.000;9.194;2022-11-04T02:07:41;4.23;;;2.73;;
5475;SDS011;2760;50.000;9.194;2022-11-04T02:10:08;2.80;;;2.60;;
5475;SDS011;2760;50.000;9.194;2022-11-04T02:12:37;4.20;;;2.17;;
5475;SDS011;2760;50.000;9.194;2022-11-04T02:15:16;3.60;;;2.40;;
5475;SDS011;2760;50.000;9.194;2022-11-04T02:17:56;2.50;;;2.30;;
5475;SDS011;2760;50.000;9.194;2022-11-04T02:20:41;2.70;;;2.40;;
5475;SDS011;2760;50.000;9.194;2022-11-04T02:26:47;2.50;;;2.30;;
5475;SDS011;2760;50.000;9.194;2022-11-04T02:29:34;6.17;;;2.13;;
5475;SDS011;2760;50.000;9.194;2022-11-04T02:32:15;2.23;;;1.80;;
5475;SDS011;2760;50.000;9.194;2022-11-04T02:34:53;2.20;;;1.90;;
5475;SDS011;2760;50.000;9.194;2022-11-04T02:37:31;1.63;;;1.53;;
5475;SDS011;2760;50.000;9.194;2022-11-04T02:40:08;1.87;;;1.30;;
5475;SDS011;2760;50.000;9.194;2022-11-04T02:42:45;1.83;;;1.73;;
5475;SDS011;2760;50.000;9.194;2022-11-04T02:45:20;1.70;;;1.60;;
5475;SDS011;2760;50.000;9.194;2022-11-04T02:47:52;1.33;;;1.23;;
5475;SDS011;2760;50.000;9.194;2022-11-04T02:50:23;1.30;;;1.20;;
5475;SDS011;2760;50.000;9.194;2022-11-04T02:52:55;1.53;;;1.43;;
5475;SDS011;2760;50.000;9.194;2022-11-04T02:55:26;1.60;;;1.50;;
5475;SDS011;2760;50.000;9.194;2022-11-04T02:57:59;1.40;;;1.30;;
5475;SDS011;2760;50.000;9.194;2022-11-04T03:00:31;2.07;;;1.70;;
5475;SDS011;2760;50.000;9.194;2022-11-04T03:03:00;1.30;;;1.20;;
5475;SDS011;2760;50.000;9.194;2022-11-04T03:05:31;3.20;;;1.40;;
5475;SDS011;2760;50.000;9.194;2022-11-04T03:08:03;2.30;;;1.40;;
5475;SDS011;2760;50.000;9.194;2022-11-04T03:10:34;1.40;;;1.30;;
5475;SDS011;2760;50.000;9.194;2022-11-04T03:13:06;1.20;;;1.10;;
5475;SDS011;2760;50.000;9.194;2022-11-04T03:15:40;1.47;;;1.37;;
5475;SDS011;2760;50.000;9.194;2022-11-04T03:18:17;1.47;;;1.33;;
5475;SDS011;2760;50.000;9.194;2022-11-04T03:20:52;2.27;;;1.10;;
5475;SDS011;2760;50.000;9.194;2022-11-04T03:23:23;1.33;;;1.23;;
5475;SDS011;2760;50.000;9.194;2022-11-04T03:25:50;6.17;;;1.83;;
5475;SDS011;2760;50.000;9.194;2022-11-04T03:28:24;1.50;;;1.40;;
5475;SDS011;2760;50.000;9.194;2022-11-04T03:31:01;3.73;;;1.43;;
5475;SDS011;2760;50.000;9.194;2022-11-04T03:33:32;1.37;;;1.23;;
5475;SDS011;2760;50.000;9.194;2022-11-04T03:36:06;1.60;;;1.50;;
5475;SDS011;2760;50.000;9.194;2022-11-04T03:38:33;3.10;;;1.70;;
5475;SDS011;2760;50.000;9.194;2022-11-04T03:41:01;1.50;;;1.40;;
5475;SDS011;2760;50.000;9.194;2022-11-04T03:43:34;3.77;;;1.60;;
5475;SDS011;2760;50.000;9.194;2022-11-04T03:46:04;1.40;;;1.30;;
5475;SDS011;2760;50.000;9.194;2022-11-04T03:48:31;1.43;;;1.33;;
5475;SDS011;2760;50.000;9.194;2022-11-04T03:50:58;1.53;;;1.43;;
5475;SDS011;2760;50.000;9.194;2022-11-04T03:53:26;3.73;;;1.70;;
5475;SDS011;2760;50.000;9.194;2022-11-04T03:56:02;1.40;;;1.30;;
5475;SDS011;2760;50.000;9.194;2022-11-04T03:58:42;2.57;;;1.37;;
5475;SDS011;2760;50.000;9.194;2022-11-04T04:01:23;2.77;;;1.67;;
5475;SDS011;2760;50.000;9.194;2022-11-04T04:03:56;2.00;;;1.70;;
5475;SDS011;2760;50.000;9.194;2022-11-04T04:06:28;2.07;;;1.83;;
5475;SDS011;2760;50.000;9.194;2022-11-04T04:08:59;4.40;;;1.90;;
5475;SDS011;2760;50.000;9.194;2022-11-04T04:11:35;1.90;;;1.70;;
5475;SDS011;2760;50.000;9.194;2022-11-04T04:14:10;2.83;;;1.63;;
5475;SDS011;2760;50.000;9.194;2022-11-04T04:17:04;2.17;;;1.30;;
5475;SDS011;2760;50.000;9.194;2022-11-04T04:19:34;1.83;;;1.27;;
5475;SDS011;2760;50.000;9.194;2022-11-04T04:22:04;2.40;;;2.13;;
5475;SDS011;2760;50.000;9.194;2022-11-04T04:24:36;3.97;;;1.80;;
5475;SDS011;2760;50.000;9.194;2022-11-04T04:27:25;1.83;;;1.30;;
5475;SDS011;2760;50.000;9.194;2022-11-04T04:29:57;2.03;;;1.60;;
5475;SDS011;2760;50.000;9.194;2022-11-04T04:32:29;7.03;;;1.73;;
5475;SDS011;2760;50.000;9.194;2022-11-04T04:35:00;4.90;;;1.80;;
5475;SDS011;2760;50.000;9.194;2022-11-04T04:37:44;2.93;;;1.50;;
5475;SDS011;2760;50.000;9.194;2022-11-04T04:40:14;1.00;;;1.00;;
5475;SDS011;2760;50.000;9.194;2022-11-04T04:43:01;1.57;;;1.37;;
5475;SDS011;2760;50.000;9.194;2022-11-04T04:45:47;3.73;;;1.33;;
5475;SDS011;2760;50.000;9.194;2022-11-04T04:48:17;4.20;;;1.83;;
5475;SDS011;2760;50.000;9.194;2022-11-04T04:50:45;2.63;;;1.87;;
5475;SDS011;2760;50.000;9.194;2022-11-04T04:53:14;2.40;;;1.77;;
5475;SDS011;2760;50.000;9.194;2022-11-04T04:55:42;1.50;;;1.40;;
5475;SDS011;2760;50.000;9.194;2022-11-04T04:58:09;3.00;;;1.77;;
5475;SDS011;2760;50.000;9.194;2022-11-04T05:00:36;2.00;;;1.90;;
5475;SDS011;2760;50.000;9.194;2022-11-04T05:03:03;3.93;;;1.83;;
5475;SDS011;2760;50.000;9.194;2022-11-04T05:05:31;2.83;;;1.40;;
5475;SDS011;2760;50.000;9.194;2022-11-04T05:08:02;3.10;;;1.80;;
5475;SDS011;2760;50.000;9.194;2022-11-04T05:10:30;2.90;;;2.00;;
5475;SDS011;2760;50.000;9.194;2022-11-04T05:12:58;2.37;;;1.50;;
5475;SDS011;2760;50.000;9.194;2022-11-04T05:15:42;1.60;;;1.50;;
5475;SDS011;2760;50.000;9.194;2022-11-04T05:18:09;2.40;;;1.63;;
5475;SDS011;2760;50.000;9.194;2022-11-04T05:20:37;6.40;;;1.93;;
5475;SDS011;2760;50.000;9.194;2022-11-04T05:23:06;2.33;;;2.13;;
5475;SDS011;2760;50.000;9.194;2022-11-04T05:25:33;4.57;;;2.20;;
5475;SDS011;2760;50.000;9.194;2022-11-04T05:28:00;2.37;;;1.60;;
5475;SDS011;2760;50.000;9.194;2022-11-04T05:30:27;5.37;;;2.30;;
5475;SDS011;2760;50.000;9.194;2022-11-04T05:32:55;3.87;;;1.90;;
5475;SDS011;2760;50.000;9.194;2022-11-04T05:35:22;7.67;;;4.40;;
5475;SDS011;2760;50.000;9.194;2022-11-04T05:37:50;6.37;;;2.50;;
5475;SDS011;2760;50.000;9.194;2022-11-04T05:40:17;5.20;;;2.50;;
5475;SDS011;2760;50.000;9.194;2022-11-04T05:42:44;4.03;;;2.07;;
5475;SDS011;2760;50.000;9.194;2022-11-04T05:45:11;4.30;;;3.13;;
5475;SDS011;2760;50.000;9.194;2022-11-04T05:47:38;3.03;;;2.63;;
5475;SDS011;2760;50.000;9.194;2022-11-04T05:50:06;4.73;;;2.40;;
5475;SDS011;2760;50.000;9.194;2022-11-04T05:52:33;6.00;;;3.27;;
5475;SDS011;2760;50.000;9.194;2022-11-04T05:55:02;6.57;;;3.37;;
5475;SDS011;2760;50.000;9.194;2022-11-04T05:57:29;6.30;;;3.70;;
5475;SDS011;2760;50.000;9.194;2022-11-04T05:59:56;6.40;;;3.60;;
5475;SDS011;2760;50.000;9.194;2022-11-04T06:02:23;5.63;;;2.80;;
5475;SDS011;2760;50.000;9.194;2022-11-04T06:04:50;13.73;;;4.57;;
5475;SDS011;2760;50.000;9.194;2022-11-04T06:07:17;6.00;;;3.40;;
5475;SDS011;2760;50.000;9.194;2022-11-04T06:09:44;4.50;;;3.47;;
5475;SDS011;2760;50.000;9.194;2022-11-04T06:12:13;6.37;;;3.67;;
5475;SDS011;2760;50.000;9.194;2022-11-04T06:14:41;4.87;;;3.20;;
5475;SDS011;2760;50.000;9.194;2022-11-04T06:17:09;5.90;;;3.00;;
5475;SDS011;2760;50.000;9.194;2022-11-04T06:19:39;6.13;;;2.87;;
5475;SDS011;2760;50.000;9.194;2022-11-04T06:22:07;5.93;;;3.70;;
5475;SDS011;2760;50.000;9.194;2022-11-04T06:24:35;10.80;;;3.80;;
5475;SDS011;2760;50.000;9.194;2022-11-04T06:27:02;10.20;;;4.83;;
5475;SDS011;2760;50.000;9.194;2022-11-04T06:29:30;11.20;;;4.50;;
5475;SDS011;2760;50.000;9.194;2022-11-04T06:31:57;6.93;;;3.77;;
5475;SDS011;2760;50.000;9.194;2022-11-04T06:34:24;5.70;;;3.20;;
5475;SDS011;2760;50.000;9.194;2022-11-04T06:36:51;5.77;;;3.33;;
5475;SDS011;2760;50.000;9.194;2022-11-04T06:39:18;10.50;;;4.10;;
5475;SDS011;2760;50.000;9.194;2022-11-04T06:41:46;5.87;;;3.33;;
5475;SDS011;2760;50.000;9.194;2022-11-04T06:44:13;8.70;;;3.73;;
5475;SDS011;2760;50.000;9.194;2022-11-04T06:46:41;5.00;;;3.80;;
5475;SDS011;2760;50.000;9.194;2022-11-04T06:49:10;8.47;;;4.80;;
5475;SDS011;2760;50.000;9.194;2022-11-04T06:51:44;6.60;;;4.23;;
5475;SDS011;2760;50.000;9.194;2022-11-04T06:54:12;13.93;;;4.57;;
5475;SDS011;2760;50.000;9.194;2022-11-04T06:56:39;9.30;;;5.03;;
5475;SDS011;2760;50.000;9.194;2022-11-04T06:59:07;11.53;;;7.77;;
5475;SDS011;2760;50.000;9.194;2022-11-04T07:01:35;10.30;;;6.10;;
5475;SDS011;2760;50.000;9.194;2022-11-04T07:04:03;9.10;;;5.57;;
5475;SDS011;2760;50.000;9.194;2022-11-04T07:06:31;11.90;;;5.47;;
5475;SDS011;2760;50.000;9.194;2022-11-04T07:08:59;15.17;;;5.60;;
5475;SDS011;2760;50.000;9.194;2022-11-04T07:11:27;8.90;;;5.27;;
5475;SDS011;2760;50.000;9.194;2022-11-04T07:13:56;15.20;;;6.07;;
5475;SDS011;2760;50.000;9.194;2022-11-04T07:16:23;7.93;;;5.47;;
5475;SDS011;2760;50.000;9.194;2022-11-04T07:18:50;15.77;;;6.00;;
5475;SDS011;2760;50.000;9.194;2022-11-04T07:21:20;9.37;;;6.50;;
5475;SDS011;2760;50.000;9.194;2022-11-04T07:23:47;15.97;;;6.20;;
5475;SDS011;2760;50.000;9.194;2022-11-04T07:26:14;8.60;;;5.10;;
5475;SDS011;2760;50.000;9.194;2022-11-04T07:28:41;13.73;;;6.63;;
5475;SDS011;2760;50.000;9.194;2022-11-04T07:31:10;19.70;;;9.03;;
5475;SDS011;2760;50.000;9.194;2022-11-04T07:33:37;7.90;;;5.13;;
5475;SDS011;2760;50.000;9.194;2022-11-04T07:36:04;8.47;;;4.30;;
5475;SDS011;2760;50.000;9.194;2022-11-04T07:38:34;6.20;;;4.97;;
5475;SDS011;2760;50.000;9.194;2022-11-04T07:41:01;4.00;;;3.53;;
5475;SDS011;2760;50.000;9.194;2022-11-04T07:43:28;5.03;;;4.03;;
5475;SDS011;2760;50.000;9.194;2022-11-04T07:45:59;10.93;;;4.87;;
5475;SDS011;2760;50.000;9.194;2022-11-04T07:48:27;14.93;;;4.70;;
5475;SDS011;2760;50.000;9.194;2022-11-04T07:50:55;10.70;;;4.43;;
5475;SDS011;2760;50.000;9.194;2022-11-04T07:53:22;19.30;;;6.40;;
5475;SDS011;2760;50.000;9.194;2022-11-04T07:55:51;10.90;;;5.00;;
5475;SDS011;2760;50.000;9.194;2022-11-04T07:58:18;13.93;;;5.33;;
5475;SDS011;2760;50.000;9.194;2022-11-04T08:00:45;8.87;;;5.77;;
5475;SDS011;2760;50.000;9.194;2022-11-04T08:03:12;19.87;;;7.83;;
5475;SDS011;2760;50.000;9.194;2022-11-04T08:05:39;9.20;;;6.53;;
5475;SDS011;2760;50.000;9.194;2022-11-04T08:08:08;10.30;;;4.70;;
5475;SDS011;2760;50.000;9.194;2022-11-04T08:10:35;6.57;;;4.43;;
5475;SDS011;2760;50.000;9.194;2022-11-04T08:13:03;10.30;;;4.60;;
5475;SDS011;2760;50.000;9.194;2022-11-04T08:15:30;6.67;;;4.37;;
5475;SDS011;2760;50.000;9.194;2022-11-04T08:17:57;8.27;;;4.30;;
5475;SDS011;2760;50.000;9.194;2022-11-04T08:20:24;5.90;;;4.00;;
5475;SDS011;2760;50.000;9.194;2022-11-04T08:22:51;5.73;;;3.40;;
5475;SDS011;2760;50.000;9.194;2022-11-04T08:25:18;7.93;;;4.07;;
5475;SDS011;2760;50.000;9.194;2022-11-04T08:27:45;7.00;;;3.80;;
5475;SDS011;2760;50.000;9.194;2022-11-04T08:30:14;16.57;;;3.70;;
5475;SDS011;2760;50.000;9.194;2022-11-04T08:32:41;5.90;;;3.00;;
5475;SDS011;2760;50.000;9.194;2022-11-04T08:35:09;7.47;;;3.00;;
5475;SDS011;2760;50.000;9.194;2022-11-04T08:37:36;6.43;;;3.60;;
5475;SDS011;2760;50.000;9.194;2022-11-04T08:40:03;11.53;;;4.07;;
5475;SDS011;2760;50.000;9.194;2022-11-04T08:42:31;25.37;;;3.40;;
5475;SDS011;2760;50.000;9.194;2022-11-04T08:44:58;5.33;;;3.07;;
5475;SDS011;2760;50.000;9.194;2022-11-04T08:47:26;9.60;;;2.90;;
5475;SDS011;2760;50.000;9.194;2022-11-04T08:49:53;6.10;;;3.20;;
5475;SDS011;2760;50.000;9.194;2022-11-04T08:52:20;10.07;;;3.60;;
5475;SDS011;2760;50.000;9.194;2022-11-04T08:54:47;10.63;;;3.77;;
5475;SDS011;2760;50.000;9.194;2022-11-04T08:57:14;9.53;;;4.03;;
5475;SDS011;2760;50.000;9.194;2022-11-04T08:59:41;11.20;;;3.70;;
5475;SDS011;2760;50.000;9.194;2022-11-04T09:02:09;7.73;;;3.83;;
5475;SDS011;2760;50.000;9.194;2022-11-04T09:04:40;8.47;;;3.20;;
5475;SDS011;2760;50.000;9.194;2022-11-04T09:07:07;12.67;;;2.80;;
5475;SDS011;2760;50.000;9.194;2022-11-04T09:09:34;23.13;;;3.40;;
5475;SDS011;2760;50.000;9.194;2022-11-04T09:12:01;7.93;;;2.77;;
5475;SDS011;2760;50.000;9.194;2022-11-04T09:14:28;11.13;;;3.73;;
5475;SDS011;2760;50.000;9.194;2022-11-04T09:16:55;6.50;;;2.63;;
5475;SDS011;2760;50.000;9.194;2022-11-04T09:19:21;6.47;;;2.50;;
5475;SDS011;2760;50.000;9.194;2022-11-04T09:21:50;7.37;;;2.30;;
5475;SDS011;2760;50.000;9.194;2022-11-04T09:24:17;6.53;;;2.40;;
5475;SDS011;2760;50.000;9.194;2022-11-04T09:26:44;10.23;;;2.50;;
5475;SDS011;2760;50.000;9.194;2022-11-04T09:29:11;3.43;;;2.50;;
5475;SDS011;2760;50.000;9.194;2022-11-04T09:31:38;4.37;;;3.83;;
5475;SDS011;2760;50.000;9.194;2022-11-04T09:34:05;10.10;;;2.97;;
5475;SDS011;2760;50.000;9.194;2022-11-04T09:36:31;10.70;;;2.43;;
5475;SDS011;2760;50.000;9.194;2022-11-04T09:39:00;5.13;;;1.50;;
5475;SDS011;2760;50.000;9.194;2022-11-04T09:41:41;8.70;;;1.97;;
5475;SDS011;2760;50.000;9.194;2022-11-04T09:44:32;6.00;;;1.97;;
5475;SDS011;2760;50.000;9.194;2022-11-04T09:47:07;3.63;;;1.60;;
5475;SDS011;2760;50.000;9.194;2022-11-04T09:49:37;17.57;;;2.30;;
5475;SDS011;2760;50.000;9.194;2022-11-04T09:52:12;10.40;;;2.43;;
5475;SDS011;2760;50.000;9.194;2022-11-04T09:54:49;8.30;;;1.80;;
5475;SDS011;2760;50.000;9.194;2022-11-04T09:57:22;3.90;;;2.00;;
5475;SDS011;2760;50.000;9.194;2022-11-04T09:59:49;2.10;;;1.60;;
5475;SDS011;2760;50.000;9.194;2022-11-04T10:05:10;4.67;;;1.60;;
5475;SDS011;2760;50.000;9.194;2022-11-04T10:07:51;8.00;;;2.50;;
5475;SDS011;2760;50.000;9.194;2022-11-04T10:10:31;9.90;;;1.97;;
5475;SDS011;2760;50.000;9.194;2022-11-04T10:13:10;8.83;;;2.10;;
5475;SDS011;2760;50.000;9.194;2022-11-04T10:15:57;6.03;;;2.20;;
5475;SDS011;2760;50.000;9.194;2022-11-04T10:18:34;11.80;;;1.50;;
5475;SDS011;2760;50.000;9.194;2022-11-04T10:21:20;7.37;;;1.90;;
5475;SDS011;2760;50.000;9.194;2022-11-04T10:24:04;3.53;;;1.90;;
5475;SDS011;2760;50.000;9.194;2022-11-04T10:26:42;7.17;;;1.40;;
5475;SDS011;2760;50.000;9.194;2022-11-04T10:29:12;7.30;;;1.93;;
5475;SDS011;2760;50.000;9.194;2022-11-04T10:31:42;7.87;;;1.47;;
5475;SDS011;2760;50.000;9.194;2022-11-04T10:34:13;5.13;;;2.13;;
5475;SDS011;2760;50.000;9.194;2022-11-04T10:36:48;6.27;;;2.00;;
5475;SDS011;2760;50.000;9.194;2022-11-04T10:39:19;6.80;;;1.63;;
5475;SDS011;2760;50.000;9.194;2022-11-04T10:41:52;3.33;;;1.50;;
5475;SDS011;2760;50.000;9.194;2022-11-04T10:44:20;1.60;;;1.50;;
5475;SDS011;2760;50.000;9.194;2022-11-04T10:46:51;4.67;;;1.50;;
5475;SDS011;2760;50.000;9.194;2022-11-04T10:49:39;4.30;;;1.60;;
5475;SDS011;2760;50.000;9.194;2022-11-04T10:52:14;5.63;;;1.77;;
5475;SDS011;2760;50.000;9.194;2022-11-04T10:54:42;5.23;;;1.80;;
5475;SDS011;2760;50.000;9.194;2022-11-04T10:57:15;3.33;;;1.53;;
5475;SDS011;2760;50.000;9.194;2022-11-04T10:59:51;3.70;;;1.70;;
5475;SDS011;2760;50.000;9.194;2022-11-04T11:02:41;2.77;;;1.60;;
5475;SDS011;2760;50.000;9.194;2022-11-04T11:05:14;3.97;;;1.90;;
5475;SDS011;2760;50.000;9.194;2022-11-04T11:07:48;3.40;;;1.53;;
5475;SDS011;2760;50.000;9.194;2022-11-04T11:10:18;9.80;;;1.80;;
5475;SDS011;2760;50.000;9.194;2022-11-04T11:12:54;2.90;;;1.53;;
5475;SDS011;2760;50.000;9.194;2022-11-04T11:15:30;4.03;;;1.93;;
5475;SDS011;2760;50.000;9.194;2022-11-04T11:18:05;3.13;;;1.60;;
5475;SDS011;2760;50.000;9.194;2022-11-04T11:20:39;2.30;;;1.30;;
5475;SDS011;2760;50.000;9.194;2022-11-04T11:26:05;3.30;;;1.47;;
5475;SDS011;2760;50.000;9.194;2022-11-04T11:28:34;6.53;;;1.47;;
5475;SDS011;2760;50.000;9.194;2022-11-04T11:31:06;1.90;;;1.10;;
5475;SDS011;2760;50.000;9.194;2022-11-04T11:33:39;10.27;;;1.50;;
5475;SDS011;2760;50.000;9.194;2022-11-04T11:36:19;3.67;;;1.80;;
5475;SDS011;2760;50.000;9.194;2022-11-04T11:38:56;5.87;;;1.73;;
5475;SDS011;2760;50.000;9.194;2022-11-04T11:41:28;4.30;;;1.70;;
5475;SDS011;2760;50.000;9.194;2022-11-04T11:44:01;4.20;;;1.87;;
5475;SDS011;2760;50.000;9.194;2022-11-04T11:46:31;3.37;;;1.23;;
5475;SDS011;2760;50.000;9.194;2022-11-04T11:49:02;2.60;;;1.80;;
5475;SDS011;2760;50.000;9.194;2022-11-04T11:51:32;6.80;;;1.73;;
5475;SDS011;2760;50.000;9.194;2022-11-04T11:54:18;4.80;;;1.80;;
5475;SDS011;2760;50.000;9.194;2022-11-04T11:56:49;7.80;;;1.87;;
5475;SDS011;2760;50.000;9.194;2022-11-04T11:59:22;5.57;;;2.23;;
5475;SDS011;2760;50.000;9.194;2022-11-04T12:01:57;3.93;;;2.40;;
5475;SDS011;2760;50.000;9.194;2022-11-04T12:04:29;4.90;;;1.87;;
5475;SDS011;2760;50.000;9.194;2022-11-04T12:07:00;4.43;;;1.97;;
5475;SDS011;2760;50.000;9.194;2022-11-04T12:09:35;3.17;;;2.17;;
5475;SDS011;2760;50.000;9.194;2022-11-04T12:12:14;5.90;;;1.50;;
5475;SDS011;2760;50.000;9.194;2022-11-04T12:14:53;8.03;;;1.73;;
5475;SDS011;2760;50.000;9.194;2022-11-04T12:17:37;2.03;;;1.67;;
5475;SDS011;2760;50.000;9.194;2022-11-04T12:20:24;5.27;;;1.83;;
5475;SDS011;2760;50.000;9.194;2022-11-04T12:23:02;7.40;;;2.07;;
5475;SDS011;2760;50.000;9.194;2022-11-04T12:25:42;2.90;;;2.00;;
5475;SDS011;2760;50.000;9.194;2022-11-04T12:28:19;2.60;;;1.60;;
5475;SDS011;2760;50.000;9.194;2022-11-04T12:30:57;7.70;;;1.77;;
5475;SDS011;2760;50.000;9.194;2022-11-04T12:33:37;4.47;;;1.60;;
5475;SDS011;2760;50.000;9.194;2022-11-04T12:36:12;3.53;;;2.47;;
5475;SDS011;2760;50.000;9.194;2022-11-04T12:39:03;2.67;;;1.50;;
5475;SDS011;2760;50.000;9.194;2022-11-04T12:41:47;5.43;;;2.30;;
5475;SDS011;2760;50.000;9.194;2022-11-04T12:44:25;5.93;;;1.93;;
5475;SDS011;2760;50.000;9.194;2022-11-04T12:47:02;2.70;;;1.50;;
5475;SDS011;2760;50.000;9.194;2022-11-04T12:49:53;4.23;;;1.80;;
5475;SDS011;2760;50.000;9.194;2022-11-04T12:52:44;6.70;;;2.10;;
5475;SDS011;2760;50.000;9.194;2022-11-04T12:55:30;9.20;;;2.00;;
5475;SDS011;2760;50.000;9.194;2022-11-04T12:58:06;2.43;;;1.40;;
5475;SDS011;2760;50.000;9.194;2022-11-04T13:00:43;9.30;;;1.70;;
5475;SDS011;2760;50.000;9.194;2022-11-04T13:03:19;5.60;;;1.60;;
5475;SDS011;2760;50.000;9.194;2022-11-04T13:05:55;2.10;;;1.50;;
5475;SDS011;2760;50.000;9.194;2022-11-04T13:08:27;7.50;;;1.90;;
5475;SDS011;2760;50.000;9.194;2022-11-04T13:11:00;5.73;;;1.67;;
5475;SDS011;2760;50.000;9.194;2022-11-04T13:13:48;3.80;;;1.63;;
5475;SDS011;2760;50.000;9.194;2022-11-04T13:16:20;6.23;;;1.83;;
5475;SDS011;2760;50.000;9.194;2022-11-04T13:18:49;6.33;;;1.90;;
5475;SDS011;2760;50.000;9.194;2022-11-04T13:21:17;5.50;;;1.40;;
5475;SDS011;2760;50.000;9.194;2022-11-04T13:23:50;7.23;;;1.70;;
5475;SDS011;2760;50.000;9.194;2022-11-04T13:26:22;4.53;;;1.33;;
5475;SDS011;2760;50.000;9.194;2022-11-04T13:28:52;3.80;;;1.70;;
5475;SDS011;2760;50.000;9.194;2022-11-04T13:31:30;10.63;;;2.50;;
5475;SDS011;2760;50.000;9.194;2022-11-04T13:34:07;3.80;;;1.60;;
5475;SDS011;2760;50.000;9.194;2022-11-04T13:36:43;4.83;;;2.20;;
5475;SDS011;2760;50.000;9.194;2022-11-04T13:39:17;5.60;;;1.83;;
5475;SDS011;2760;50.000;9.194;2022-11-04T13:41:55;10.73;;;2.03;;
5475;SDS011;2760;50.000;9.194;2022-11-04T13:44:47;4.67;;;1.17;;
5475;SDS011;2760;50.000;9.194;2022-11-04T13:47:17;7.53;;;2.10;;
5475;SDS011;2760;50.000;9.194;2022-11-04T13:49:50;7.40;;;1.60;;
5475;SDS011;2760;50.000;9.194;2022-11-04T13:52:19;7.07;;;1.60;;
5475;SDS011;2760;50.000;9.194;2022-11-04T13:54:51;5.10;;;2.00;;
5475;SDS011;2760;50.000;9.194;2022-11-04T13:57:22;5.37;;;1.60;;
5475;SDS011;2760;50.000;9.194;2022-11-04T14:00:05;4.60;;;1.67;;
5475;SDS011;2760;50.000;9.194;2022-11-04T14:02:48;7.53;;;1.87;;
5475;SDS011;2760;50.000;9.194;2022-11-04T14:08:21;6.07;;;2.13;;
5475;SDS011;2760;50.000;9.194;2022-11-04T14:10:58;5.47;;;1.80;;
5475;SDS011;2760;50.000;9.194;2022-11-04T14:13:43;8.30;;;2.00;;
5475;SDS011;2760;50.000;9.194;2022-11-04T14:16:44;13.90;;;3.30;;
5475;SDS011;2760;50.000;9.194;2022-11-04T14:22:20;5.10;;;1.53;;
5475;SDS011;2760;50.000;9.194;2022-11-04T14:24:54;6.27;;;2.40;;
5475;SDS011;2760;50.000;9.194;2022-11-04T14:27:28;5.20;;;2.10;;
5475;SDS011;2760;50.000;9.194;2022-11-04T14:29:59;7.73;;;2.30;;
5475;SDS011;2760;50.000;9.194;2022-11-04T14:32:30;7.50;;;1.83;;
5475;SDS011;2760;50.000;9.194;2022-11-04T14:35:02;10.40;;;2.33;;
5475;SDS011;2760;50.000;9.194;2022-11-04T14:37:31;7.27;;;2.57;;
5475;SDS011;2760;50.000;9.194;2022-11-04T14:40:05;7.40;;;2.50;;
5475;SDS011;2760;50.000;9.194;2022-11-04T14:42:41;5.70;;;2.80;;
5475;SDS011;2760;50.000;9.194;2022-11-04T14:45:14;9.63;;;2.20;;
5475;SDS011;2760;50.000;9.194;2022-11-04T14:47:45;7.93;;;2.13;;
5475;SDS011;2760;50.000;9.194;2022-11-04T14:50:18;7.87;;;2.90;;
5475;SDS011;2760;50.000;9.194;2022-11-04T14:52:48;14.70;;;2.47;;
5475;SDS011;2760;50.000;9.194;2022-11-04T14:55:21;8.33;;;3.40;;
5475;SDS011;2760;50.000;9.194;2022-11-04T14:57:51;8.33;;;2.97;;
5475;SDS011;2760;50.000;9.194;2022-11-04T15:00:33;9.70;;;4.50;;
5475;SDS011;2760;50.000;9.194;2022-11-04T15:03:09;7.60;;;2.90;;
5475;SDS011;2760;50.000;9.194;2022-11-04T15:05:39;6.80;;;2.20;;
5475;SDS011;2760;50.000;9.194;2022-11-04T15:11:12;9.97;;;2.33;;
5475;SDS011;2760;50.000;9.194;2022-11-04T15:13:43;5.13;;;2.93;;
5475;SDS011;2760;50.000;9.194;2022-11-04T15:16:13;5.47;;;2.77;;
5475;SDS011;2760;50.000;9.194;2022-11-04T15:18:43;8.43;;;2.60;;
5475;SDS011;2760;50.000;9.194;2022-11-04T15:21:11;6.20;;;2.50;;
5475;SDS011;2760;50.000;9.194;2022-11-04T15:23:38;8.40;;;2.90;;
5475;SDS011;2760;50.000;9.194;2022-11-04T15:26:20;12.67;;;2.90;;
5475;SDS011;2760;50.000;9.194;2022-11-04T15:28:49;13.37;;;4.00;;
5475;SDS011;2760;50.000;9.194;2022-11-04T15:31:18;7.40;;;2.90;;
5475;SDS011;2760;50.000;9.194;2022-11-04T15:33:47;8.73;;;3.77;;
5475;SDS011;2760;50.000;9.194;2022-11-04T15:36:16;8.73;;;3.20;;
5475;SDS011;2760;50.000;9.194;2022-11-04T15:38:46;12.90;;;4.27;;
5475;SDS011;2760;50.000;9.194;2022-11-04T15:41:17;11.10;;;4.90;;
5475;SDS011;2760;50.000;9.194;2022-11-04T15:44:06;3.80;;;2.17;;
5475;SDS011;2760;50.000;9.194;2022-11-04T15:46:47;3.80;;;2.30;;
5475;SDS011;2760;50.000;9.194;2022-11-04T15:49:19;8.00;;;2.93;;
5475;SDS011;2760;50.000;9.194;2022-11-04T15:51:49;5.50;;;3.43;;
5475;SDS011;2760;50.000;9.194;2022-11-04T15:54:20;6.07;;;2.30;;
5475;SDS011;2760;50.000;9.194;2022-11-04T15:56:53;7.20;;;2.17;;
5475;SDS011;2760;50.000;9.194;2022-11-04T15:59:22;8.50;;;2.30;;
5475;SDS011;2760;50.000;9.194;2022-11-04T16:01:53;7.43;;;2.83;;